100LL.CA
Aviation Fuel Pricing for Canadians
Please upgrade your browser - Tested with IE9, FireFox, Chrome, Safari

Fuel Airports Other Help
Prices Economy Info List METAR/TAF Kneeboard Help

Reference Airport: SMITHERS, BC
N 54 49 31  W 127 10 58
Provinces to show:

CYYD SMITHERS, BC
WEATHER
METARCYYD 230300Z 31003KT 230V340 15SM SCT210 M02/M04 A3015 RMK CI3 SLP240
TAFTAF CYYD 230040Z 2301/2306 VRB03KT P6SM FEW210 RMK NXT FCST BY 231400Z
OTHER SITES

FlightAware

FltPlan

Google Maps

SkyVector
FUEL
FBO 100LL
member
100LL
public
JETA MOGAS
Allied Aviation (2023-06-14)2.6802.460
  Note: Camping $10/night firewood included! Into Plane Fees charged for AvGas
Canada Flight Supplement - CYYD
(opens in new tab/window)


Please Send Updates!

Desktop Version ]  [ Mobile Version ]  [ Disclaimer ]